createdAt,value
2023-05-21T00:00:44.572Z,87.80
2023-05-21T00:02:49.496Z,88.05
2023-05-21T00:04:54.521Z,88.14
2023-05-21T00:06:59.267Z,88.12
2023-05-21T00:09:05.586Z,88.16
2023-05-21T00:11:10.560Z,88.24
2023-05-21T00:13:15.438Z,88.32
2023-05-21T00:15:20.233Z,88.29
2023-05-21T00:17:24.995Z,88.48
2023-05-21T00:19:29.927Z,88.64
2023-05-21T00:21:34.651Z,88.60
2023-05-21T00:23:39.357Z,88.70
2023-05-21T00:25:45.588Z,88.73
2023-05-21T00:27:50.294Z,88.93
2023-05-21T00:29:56.218Z,88.87
2023-05-21T00:32:00.976Z,88.84
2023-05-21T00:34:05.700Z,88.85
2023-05-21T00:36:10.512Z,89.26
2023-05-21T00:38:15.206Z,89.40
2023-05-21T00:40:20.694Z,89.70
2023-05-21T00:42:25.573Z,89.49
2023-05-21T00:44:30.732Z,89.69
2023-05-21T00:46:36.295Z,89.89
2023-05-21T00:48:41.186Z,90.06
2023-05-21T00:50:46.152Z,90.16
2023-05-21T00:52:51.382Z,90.26
2023-05-21T00:54:56.788Z,90.86
2023-05-21T00:57:02.869Z,90.75
2023-05-21T00:59:07.667Z,91.09
2023-05-21T01:01:12.806Z,91.04
2023-05-21T01:03:17.694Z,91.14
2023-05-21T01:05:23.053Z,91.21
2023-05-21T01:07:27.743Z,91.47
2023-05-21T01:09:32.699Z,91.80
2023-05-21T01:11:41.411Z,91.96
2023-05-21T01:13:48.342Z,91.85
2023-05-21T01:15:53.958Z,91.83
2023-05-21T01:17:59.520Z,92.02
2023-05-21T01:20:06.767Z,92.04
2023-05-21T01:22:14.156Z,91.72
2023-05-21T01:24:19.249Z,91.72
2023-05-21T01:26:23.884Z,92.01
2023-05-21T01:28:28.736Z,91.86
2023-05-21T01:30:33.944Z,91.83
2023-05-21T01:32:48.127Z,91.62
2023-05-21T01:35:00.679Z,91.47
2023-05-21T01:37:12.794Z,91.54
2023-05-21T01:39:23.659Z,91.46
2023-05-21T01:41:33.109Z,91.28
2023-05-21T01:43:41.369Z,91.20
2023-05-21T01:45:47.421Z,91.39
2023-05-21T01:47:54.477Z,91.18
2023-05-21T01:50:00.156Z,91.28
2023-05-21T01:52:06.229Z,91.07
2023-05-21T01:54:13.659Z,91.04
2023-05-21T01:56:18.706Z,91.26
2023-05-21T01:58:23.417Z,91.57
2023-05-21T02:00:28.583Z,91.80
2023-05-21T02:02:33.436Z,91.87
2023-05-21T02:04:38.327Z,92.09
2023-05-21T02:06:46.164Z,92.26
2023-05-21T02:08:50.972Z,92.73
2023-05-21T02:10:55.904Z,92.69
2023-05-21T02:13:00.909Z,92.86
2023-05-21T02:15:07.316Z,93.15
2023-05-21T02:17:12.128Z,93.11
2023-05-21T02:19:17.445Z,93.26
2023-05-21T02:21:22.292Z,93.28
2023-05-21T02:23:27.094Z,93.23
2023-05-21T02:25:32.090Z,93.51
2023-05-21T02:27:37.119Z,93.35
2023-05-21T02:29:41.738Z,93.41
2023-05-21T02:31:46.493Z,93.59
2023-05-21T02:33:51.223Z,93.55
2023-05-21T02:35:56.048Z,93.85
2023-05-21T02:38:00.778Z,93.94
2023-05-21T02:40:08.810Z,93.89
2023-05-21T02:42:13.533Z,94.04
2023-05-21T02:44:18.347Z,94.12
2023-05-21T02:46:23.237Z,94.07
2023-05-21T02:48:29.909Z,94.04
2023-05-21T02:50:34.575Z,94.12
2023-05-21T02:52:39.295Z,94.19
2023-05-21T02:54:44.180Z,94.32
2023-05-21T02:56:51.753Z,94.41
2023-05-21T02:58:56.492Z,94.31
2023-05-21T03:01:01.320Z,94.29
2023-05-21T03:03:06.212Z,94.52
2023-05-21T03:05:12.599Z,94.64
2023-05-21T03:07:18.203Z,94.76
2023-05-21T03:09:23.098Z,94.52
2023-05-21T03:11:27.865Z,94.56
2023-05-21T03:13:33.733Z,94.33
2023-05-21T03:15:38.603Z,94.48
2023-05-21T03:17:43.542Z,94.47
2023-05-21T03:19:48.247Z,94.54
2023-05-21T03:21:53.091Z,94.35
2023-05-21T03:23:58.179Z,94.18
2023-05-21T03:26:02.929Z,93.96
2023-05-21T03:28:07.707Z,94.13
2023-05-21T03:30:20.528Z,94.25
2023-05-21T03:32:43.166Z,94.23
2023-05-21T03:34:47.978Z,94.39
2023-05-21T03:36:53.275Z,94.57
2023-05-21T03:38:58.903Z,94.66
2023-05-21T03:41:03.988Z,94.68
2023-05-21T03:43:08.892Z,95.10
2023-05-21T03:45:14.687Z,94.80
2023-05-21T03:47:38.784Z,94.34
2023-05-21T03:49:44.541Z,94.54
2023-05-21T03:51:49.217Z,94.44
2023-05-21T03:53:54.781Z,94.48
2023-05-21T03:55:59.792Z,94.83
2023-05-21T03:58:05.007Z,94.36
2023-05-21T04:00:11.062Z,94.47
2023-05-21T04:02:22.884Z,94.63
2023-05-21T04:04:27.788Z,94.30
2023-05-21T04:06:32.677Z,94.18
2023-05-21T04:08:37.278Z,93.76
2023-05-21T04:10:42.078Z,93.72
2023-05-21T04:12:47.485Z,93.40
2023-05-21T04:14:52.099Z,92.94
2023-05-21T04:16:56.961Z,92.89
2023-05-21T04:19:01.733Z,92.84
2023-05-21T04:21:07.595Z,92.72
2023-05-21T04:23:12.253Z,92.30
2023-05-21T04:25:18.147Z,91.98
2023-05-21T04:27:23.936Z,91.93
2023-05-21T04:29:29.637Z,91.55
2023-05-21T04:31:34.960Z,91.31
2023-05-21T04:33:40.474Z,91.16
2023-05-21T04:35:46.035Z,90.77
2023-05-21T04:37:50.785Z,90.49
2023-05-21T04:39:57.727Z,90.13
2023-05-21T04:42:04.030Z,90.07
2023-05-21T04:44:12.258Z,89.94
2023-05-21T04:46:19.991Z,89.62
2023-05-21T04:48:25.770Z,89.09
2023-05-21T04:50:30.901Z,88.80
2023-05-21T04:52:35.665Z,89.02
2023-05-21T04:54:40.415Z,88.83
2023-05-21T04:56:45.159Z,88.87
2023-05-21T04:58:49.787Z,88.60
2023-05-21T05:00:54.557Z,88.29
2023-05-21T05:02:59.349Z,87.99
2023-05-21T05:05:05.145Z,87.57
2023-05-21T05:07:11.161Z,87.20
2023-05-21T05:09:15.948Z,87.13
2023-05-21T05:11:20.647Z,86.78
2023-05-21T05:13:25.410Z,86.35
2023-05-21T05:15:30.818Z,86.07
2023-05-21T05:17:36.145Z,86.21
2023-05-21T05:19:40.884Z,85.70
2023-05-21T05:21:45.733Z,85.60
2023-05-21T05:23:50.473Z,85.24
2023-05-21T05:25:55.429Z,85.00
2023-05-21T05:28:00.130Z,84.47
2023-05-21T05:30:05.793Z,84.20
2023-05-21T05:32:10.959Z,83.67
2023-05-21T05:34:15.670Z,83.57
2023-05-21T05:36:20.425Z,83.23
2023-05-21T05:38:25.466Z,82.48
2023-05-21T05:40:30.081Z,82.00
2023-05-21T05:42:34.853Z,81.70
2023-05-21T05:44:41.358Z,80.62
2023-05-21T05:46:46.231Z,79.98
2023-05-21T05:48:53.698Z,79.84
2023-05-21T05:50:58.536Z,79.52
2023-05-21T05:53:03.811Z,78.52
2023-05-21T05:55:10.218Z,78.70
2023-05-21T05:57:15.478Z,78.30
2023-05-21T05:59:29.064Z,78.19
2023-05-21T06:01:36.063Z,76.63
2023-05-21T06:03:40.924Z,77.40
2023-05-21T06:05:55.947Z,75.04
2023-05-21T06:08:00.908Z,75.40
2023-05-21T06:10:06.394Z,76.40
2023-05-21T06:12:14.716Z,76.61
2023-05-21T06:14:19.650Z,76.50
2023-05-21T06:16:24.383Z,75.47
2023-05-21T06:18:29.207Z,75.11
2023-05-21T06:20:34.330Z,73.85
2023-05-21T06:22:39.040Z,72.07
2023-05-21T06:24:44.422Z,72.27
2023-05-21T06:26:50.020Z,73.14
2023-05-21T06:28:54.756Z,73.04
2023-05-21T06:30:59.878Z,71.74
2023-05-21T06:33:05.240Z,72.20
2023-05-21T06:35:10.782Z,71.80
2023-05-21T06:37:19.117Z,71.17
2023-05-21T06:39:26.669Z,70.61
2023-05-21T06:41:32.002Z,70.59
2023-05-21T06:43:40.601Z,68.84
2023-05-21T06:46:04.023Z,69.05
2023-05-21T06:48:15.547Z,69.80
2023-05-21T06:50:20.867Z,69.58
2023-05-21T06:52:25.620Z,69.33
2023-05-21T06:54:30.650Z,69.09
2023-05-21T06:56:35.419Z,68.94
2023-05-21T06:58:40.156Z,69.15
2023-05-21T07:00:44.810Z,68.57
2023-05-21T07:02:49.547Z,66.88
2023-05-21T07:04:57.251Z,65.75
2023-05-21T07:07:02.084Z,66.18
2023-05-21T07:09:06.899Z,66.28
2023-05-21T07:11:12.890Z,66.47
2023-05-21T07:13:18.344Z,66.53
2023-05-21T07:15:23.382Z,66.70
2023-05-21T07:17:28.305Z,65.50
2023-05-21T07:19:33.528Z,65.79
2023-05-21T07:21:38.405Z,65.13
2023-05-21T07:23:44.022Z,64.43
2023-05-21T07:25:48.979Z,65.72
2023-05-21T07:27:53.931Z,65.68
2023-05-21T07:29:58.728Z,65.40
2023-05-21T07:32:05.686Z,65.55
2023-05-21T07:34:13.171Z,64.49
2023-05-21T07:36:18.760Z,64.07
2023-05-21T07:38:23.922Z,64.48
2023-05-21T07:40:28.729Z,65.32
2023-05-21T07:42:33.818Z,65.27
2023-05-21T07:44:39.350Z,63.25
2023-05-21T07:46:45.069Z,64.18
2023-05-21T07:48:50.287Z,64.61
2023-05-21T07:50:55.001Z,64.74
2023-05-21T07:52:59.861Z,64.79
2023-05-21T07:55:05.119Z,64.37
2023-05-21T07:57:10.194Z,63.78
2023-05-21T07:59:24.853Z,63.75
2023-05-21T08:01:30.344Z,62.69
2023-05-21T08:03:35.741Z,61.74
2023-05-21T08:05:40.723Z,62.90
2023-05-21T08:07:45.452Z,63.23
2023-05-21T08:09:52.930Z,62.53
2023-05-21T08:11:57.745Z,61.73
2023-05-21T08:14:02.449Z,61.53
2023-05-21T08:16:07.970Z,62.30
2023-05-21T08:18:12.732Z,63.07
2023-05-21T08:20:19.599Z,62.81
2023-05-21T08:22:24.396Z,63.02
2023-05-21T08:24:29.168Z,63.09
2023-05-21T08:26:34.686Z,62.82
2023-05-21T08:28:40.757Z,62.63
2023-05-21T08:30:48.156Z,62.73
2023-05-21T08:32:53.536Z,62.41
2023-05-21T08:34:58.450Z,62.07
2023-05-21T08:37:26.162Z,61.23
2023-05-21T08:39:41.196Z,60.46
2023-05-21T08:41:48.877Z,59.25
2023-05-21T08:43:57.129Z,58.82
2023-05-21T08:46:03.568Z,58.31
2023-05-21T08:48:11.308Z,58.44
2023-05-21T08:50:17.645Z,59.04
2023-05-21T08:52:22.564Z,59.14
2023-05-21T08:54:27.630Z,59.16
2023-05-21T08:56:34.561Z,58.15
2023-05-21T08:58:45.029Z,58.70
2023-05-21T09:00:50.013Z,58.88
2023-05-21T09:02:55.960Z,57.86
2023-05-21T09:05:01.330Z,58.05
2023-05-21T09:07:06.786Z,58.13
2023-05-21T09:09:48.986Z,58.28
2023-05-21T09:11:53.825Z,56.82
2023-05-21T09:14:00.184Z,57.08
2023-05-21T09:16:14.932Z,56.65
2023-05-21T09:18:20.725Z,55.93
2023-05-21T09:20:32.498Z,56.50
2023-05-21T09:22:42.278Z,56.47
2023-05-21T09:24:47.202Z,55.49
2023-05-21T09:26:52.650Z,55.42
2023-05-21T09:29:00.173Z,56.28
2023-05-21T09:31:10.669Z,55.62
2023-05-21T09:33:28.904Z,54.76
2023-05-21T09:35:36.045Z,54.39
2023-05-21T09:37:41.868Z,55.57
2023-05-21T09:39:48.800Z,56.30
2023-05-21T09:41:53.518Z,56.60
2023-05-21T09:44:02.079Z,56.87
2023-05-21T09:46:07.219Z,55.77
2023-05-21T09:48:12.011Z,55.27
2023-05-21T09:50:20.206Z,55.74
2023-05-21T09:52:28.116Z,54.93
2023-05-21T09:54:34.566Z,54.88
2023-05-21T09:56:39.696Z,54.29
2023-05-21T09:58:44.751Z,54.54
2023-05-21T10:00:49.998Z,54.75
2023-05-21T10:02:57.180Z,54.28
2023-05-21T10:05:03.178Z,52.10
2023-05-21T10:07:08.877Z,53.14
2023-05-21T10:09:15.196Z,53.28
2023-05-21T10:11:22.088Z,52.74
2023-05-21T10:13:27.855Z,51.68
2023-05-21T10:15:37.780Z,51.96
2023-05-21T10:17:43.156Z,53.25
2023-05-21T10:19:48.687Z,53.47
2023-05-21T10:21:54.206Z,53.42
2023-05-21T10:23:59.816Z,51.93
2023-05-21T10:26:05.495Z,52.59
2023-05-21T10:28:10.634Z,50.20
2023-05-21T10:30:18.160Z,50.92
2023-05-21T10:32:23.156Z,51.08
2023-05-21T10:34:29.594Z,52.04
2023-05-21T10:36:35.814Z,51.73
2023-05-21T10:38:40.783Z,51.04
2023-05-21T10:40:46.464Z,49.45
2023-05-21T10:43:21.964Z,50.30
2023-05-21T10:45:42.371Z,50.46
2023-05-21T10:48:21.176Z,50.58
2023-05-21T10:50:54.125Z,49.28
2023-05-21T10:53:10.650Z,48.98
2023-05-21T10:55:29.187Z,49.02
2023-05-21T10:57:57.131Z,47.80
2023-05-21T11:00:02.571Z,48.04
2023-05-21T11:02:09.796Z,49.22
2023-05-21T11:04:14.593Z,48.07
2023-05-21T11:06:26.872Z,48.33
2023-05-21T11:08:33.094Z,47.71
2023-05-21T11:10:41.298Z,48.47
2023-05-21T11:13:10.799Z,47.39
2023-05-21T11:15:17.438Z,46.40
2023-05-21T11:17:39.525Z,47.33
2023-05-21T11:19:45.357Z,48.07
2023-05-21T11:21:55.216Z,48.38
2023-05-21T11:24:02.874Z,47.91
2023-05-21T11:26:08.216Z,47.99
2023-05-21T11:28:12.907Z,47.68
2023-05-21T11:30:21.867Z,47.49
2023-05-21T11:32:26.746Z,46.99
2023-05-21T11:34:39.176Z,46.91
2023-05-21T11:36:46.084Z,46.70
2023-05-21T11:39:10.230Z,46.13
2023-05-21T11:41:21.501Z,45.76
2023-05-21T11:43:26.514Z,45.71
2023-05-21T11:45:32.788Z,45.00
2023-05-21T11:47:37.709Z,44.01
2023-05-21T11:49:43.282Z,44.91
2023-05-21T11:51:48.900Z,45.52
2023-05-21T11:53:54.058Z,44.64
2023-05-21T11:56:02.025Z,44.69
2023-05-21T11:58:07.454Z,44.53
2023-05-21T12:00:16.792Z,44.89
2023-05-21T12:02:22.406Z,44.99
2023-05-21T12:04:31.812Z,44.35
2023-05-21T12:06:36.571Z,44.09
2023-05-21T12:08:41.327Z,44.12
2023-05-21T12:10:46.263Z,43.86
2023-05-21T12:12:56.472Z,43.71
2023-05-21T12:15:02.804Z,43.43
2023-05-21T12:17:08.663Z,43.28
2023-05-21T12:19:17.051Z,43.25
2023-05-21T12:21:21.936Z,43.40
2023-05-21T12:23:27.219Z,43.33
2023-05-21T12:25:31.952Z,43.81
2023-05-21T12:27:36.789Z,43.40
2023-05-21T12:29:42.672Z,43.66
2023-05-21T12:31:50.731Z,43.30
2023-05-21T12:33:55.562Z,42.91
2023-05-21T12:36:01.162Z,43.10
2023-05-21T12:38:07.069Z,43.12
2023-05-21T12:40:13.399Z,42.68
2023-05-21T12:42:24.260Z,40.18
2023-05-21T12:44:32.790Z,42.09
2023-05-21T12:46:39.903Z,41.17
2023-05-21T12:48:50.067Z,41.82
2023-05-21T12:50:54.893Z,41.62
2023-05-21T12:52:59.923Z,41.60
2023-05-21T12:55:06.212Z,39.95
2023-05-21T12:57:15.817Z,41.38
2023-05-21T12:59:20.467Z,41.72
2023-05-21T13:01:25.118Z,40.78
2023-05-21T13:03:32.044Z,41.37
2023-05-21T13:05:39.939Z,40.50
2023-05-21T13:07:45.203Z,40.98
2023-05-21T13:09:49.921Z,41.23
2023-05-21T13:11:54.536Z,41.48
2023-05-21T13:13:59.281Z,41.59
2023-05-21T13:16:04.209Z,40.88
2023-05-21T13:18:08.949Z,41.15
2023-05-21T13:20:15.455Z,41.21
2023-05-21T13:22:20.351Z,40.55
2023-05-21T13:24:25.046Z,40.30
2023-05-21T13:26:29.722Z,40.82
2023-05-21T13:28:34.565Z,40.43
2023-05-21T13:30:39.511Z,40.87
2023-05-21T13:32:45.222Z,40.77
2023-05-21T13:34:50.153Z,41.11
2023-05-21T13:36:54.978Z,40.33
2023-05-21T13:38:59.694Z,40.47
2023-05-21T13:41:04.308Z,40.57
2023-05-21T13:43:11.897Z,40.79
2023-05-21T13:45:17.880Z,41.12
2023-05-21T13:47:22.798Z,39.64
2023-05-21T13:49:28.569Z,40.52
2023-05-21T13:51:39.116Z,40.17
2023-05-21T13:53:44.390Z,39.36
2023-05-21T13:55:49.214Z,39.33
2023-05-21T13:57:53.885Z,39.23
2023-05-21T13:59:58.668Z,39.07
2023-05-21T14:02:03.313Z,38.59
2023-05-21T14:04:07.980Z,38.11
2023-05-21T14:06:12.647Z,38.67
2023-05-21T14:08:17.297Z,38.86
2023-05-21T14:10:22.034Z,39.08
2023-05-21T14:12:26.750Z,39.23
2023-05-21T14:14:31.508Z,38.99
2023-05-21T14:16:36.335Z,39.12
2023-05-21T14:18:41.192Z,39.43
2023-05-21T14:20:45.871Z,39.16
2023-05-21T14:22:50.543Z,39.00
2023-05-21T14:24:55.262Z,38.52
2023-05-21T14:27:03.025Z,38.24
2023-05-21T14:29:07.692Z,37.63
2023-05-21T14:31:12.504Z,38.68
2023-05-21T14:33:17.367Z,39.00
2023-05-21T14:35:22.026Z,39.18
2023-05-21T14:37:26.769Z,39.47
2023-05-21T14:39:31.483Z,39.47
2023-05-21T14:41:39.927Z,39.49
2023-05-21T14:43:44.608Z,40.02
2023-05-21T14:45:49.658Z,40.44
2023-05-21T14:47:54.546Z,40.12
2023-05-21T14:49:59.200Z,40.36
2023-05-21T14:52:04.147Z,40.17
2023-05-21T14:54:08.885Z,40.19
2023-05-21T14:56:13.543Z,40.39
2023-05-21T14:58:18.184Z,40.14
2023-05-21T15:00:22.867Z,39.92
2023-05-21T15:02:27.663Z,39.47
2023-05-21T15:04:32.414Z,39.73
2023-05-21T15:06:37.143Z,39.91
2023-05-21T15:08:41.912Z,39.77
2023-05-21T15:10:49.322Z,40.09
2023-05-21T15:12:54.461Z,39.38
2023-05-21T15:14:59.161Z,39.40
2023-05-21T15:17:04.063Z,39.58
2023-05-21T15:19:08.989Z,39.57
2023-05-21T15:21:13.765Z,39.92
2023-05-21T15:23:18.634Z,39.68
2023-05-21T15:25:23.552Z,39.42
2023-05-21T15:27:28.560Z,39.86
2023-05-21T15:29:33.205Z,40.11
2023-05-21T15:31:37.882Z,39.88
2023-05-21T15:33:42.508Z,38.90
2023-05-21T15:35:47.455Z,39.59
2023-05-21T15:37:52.145Z,39.53
2023-05-21T15:39:56.870Z,39.88
2023-05-21T15:42:01.631Z,39.72
2023-05-21T15:44:06.595Z,40.09
2023-05-21T15:46:11.418Z,39.87
2023-05-21T15:48:16.136Z,39.85
2023-05-21T15:50:20.736Z,39.93
2023-05-21T15:52:25.430Z,40.04
2023-05-21T15:54:30.330Z,39.86
2023-05-21T15:56:38.123Z,39.72
2023-05-21T15:58:42.817Z,40.04
2023-05-21T16:00:47.582Z,39.75
2023-05-21T16:02:52.317Z,39.56
2023-05-21T16:04:57.484Z,40.01
2023-05-21T16:07:02.099Z,40.36
2023-05-21T16:09:08.117Z,40.72
2023-05-21T16:11:13.034Z,40.28
2023-05-21T16:13:17.852Z,40.54
2023-05-21T16:15:25.525Z,40.65
2023-05-21T16:17:30.250Z,39.83
2023-05-21T16:19:35.084Z,40.15
2023-05-21T16:21:39.877Z,40.64
2023-05-21T16:23:44.614Z,40.87
2023-05-21T16:25:49.401Z,41.15
2023-05-21T16:27:55.328Z,41.41
2023-05-21T16:30:00.216Z,41.88
2023-05-21T16:32:05.350Z,41.87
2023-05-21T16:34:10.162Z,41.78
2023-05-21T16:36:16.907Z,41.76
2023-05-21T16:38:22.732Z,41.92
2023-05-21T16:40:27.629Z,41.84
2023-05-21T16:42:32.300Z,41.21
2023-05-21T16:44:37.110Z,41.47
2023-05-21T16:46:41.906Z,41.45
2023-05-21T16:48:46.611Z,41.44
2023-05-21T16:50:51.711Z,41.51
2023-05-21T16:52:56.458Z,41.44
2023-05-21T16:55:01.993Z,41.82
2023-05-21T16:57:07.017Z,41.94
2023-05-21T16:59:11.827Z,41.71
2023-05-21T17:01:16.699Z,41.76
2023-05-21T17:03:24.429Z,41.47
2023-05-21T17:05:29.215Z,40.99
2023-05-21T17:07:33.961Z,40.83
2023-05-21T17:09:38.645Z,40.77
2023-05-21T17:11:43.267Z,40.11
2023-05-21T17:13:47.969Z,39.90
2023-05-21T17:15:52.989Z,40.32
2023-05-21T17:17:57.763Z,40.38
2023-05-21T17:20:03.089Z,41.18
2023-05-21T17:22:07.893Z,41.39
2023-05-21T17:24:12.711Z,41.72
2023-05-21T17:26:17.452Z,42.12
2023-05-21T17:28:22.131Z,41.68
2023-05-21T17:30:26.799Z,41.38
2023-05-21T17:32:31.481Z,41.37
2023-05-21T17:34:36.166Z,41.30
2023-05-21T17:36:40.863Z,41.86
2023-05-21T17:38:45.573Z,41.49
2023-05-21T17:40:50.303Z,41.27
2023-05-21T17:42:55.419Z,41.53
2023-05-21T17:45:00.112Z,41.64
2023-05-21T17:47:05.383Z,41.57
2023-05-21T17:49:10.242Z,41.67
2023-05-21T17:51:14.911Z,41.81
2023-05-21T17:53:19.694Z,41.85
2023-05-21T17:55:24.337Z,41.85
2023-05-21T17:57:29.131Z,42.07
2023-05-21T17:59:33.785Z,42.09
2023-05-21T18:01:39.811Z,42.41
2023-05-21T18:03:44.484Z,42.31
2023-05-21T18:05:49.526Z,42.64
2023-05-21T18:07:54.248Z,42.86
2023-05-21T18:09:58.908Z,42.96
2023-05-21T18:12:04.491Z,43.28
2023-05-21T18:14:09.259Z,43.51
2023-05-21T18:16:14.046Z,43.46
2023-05-21T18:18:21.459Z,43.87
2023-05-21T18:20:26.578Z,44.13
2023-05-21T18:22:31.347Z,44.26
2023-05-21T18:24:36.081Z,44.59
2023-05-21T18:26:40.787Z,44.73
2023-05-21T18:28:45.559Z,44.92
2023-05-21T18:30:50.238Z,45.26
2023-05-21T18:32:54.906Z,45.44
2023-05-21T18:34:59.678Z,45.69
2023-05-21T18:37:04.592Z,45.96
2023-05-21T18:39:11.619Z,46.34
2023-05-21T18:41:16.765Z,46.45
2023-05-21T18:43:21.505Z,46.73
2023-05-21T18:45:26.412Z,46.88
2023-05-21T18:47:31.131Z,46.97
2023-05-21T18:49:36.384Z,47.25
2023-05-21T18:51:41.781Z,47.24
2023-05-21T18:53:46.441Z,47.35
2023-05-21T18:55:51.309Z,47.55
2023-05-21T18:57:56.069Z,47.56
2023-05-21T19:00:01.003Z,47.78
2023-05-21T19:02:06.536Z,47.82
2023-05-21T19:04:11.317Z,48.02
2023-05-21T19:06:16.219Z,48.11
2023-05-21T19:08:20.929Z,48.23
2023-05-21T19:10:25.601Z,48.40
2023-05-21T19:12:31.306Z,48.51
2023-05-21T19:14:36.061Z,48.62
2023-05-21T19:16:41.351Z,48.82
2023-05-21T19:18:46.533Z,48.95
2023-05-21T19:20:51.235Z,49.21
2023-05-21T19:22:56.073Z,49.53
2023-05-21T19:25:01.416Z,49.53
2023-05-21T19:27:06.438Z,49.80
2023-05-21T19:29:11.097Z,49.94
2023-05-21T19:31:15.881Z,49.90
2023-05-21T19:33:20.700Z,49.88
2023-05-21T19:35:25.686Z,50.19
2023-05-21T19:37:30.452Z,50.07
2023-05-21T19:39:40.568Z,50.27
2023-05-21T19:41:45.264Z,50.59
2023-05-21T19:43:50.326Z,50.60
2023-05-21T19:45:55.075Z,50.57
2023-05-21T19:47:59.970Z,50.98
2023-05-21T19:50:05.395Z,51.27
2023-05-21T19:52:10.125Z,51.78
2023-05-21T19:54:14.797Z,52.08
2023-05-21T19:56:19.562Z,52.16
2023-05-21T19:58:25.023Z,52.69
2023-05-21T20:00:29.944Z,52.89
2023-05-21T20:02:34.689Z,53.16
2023-05-21T20:04:39.411Z,53.30
2023-05-21T20:06:44.552Z,53.83
2023-05-21T20:08:49.370Z,54.03
2023-05-21T20:10:54.174Z,54.30
2023-05-21T20:12:58.990Z,54.67
2023-05-21T20:15:03.881Z,54.68
2023-05-21T20:17:10.045Z,55.02
2023-05-21T20:19:18.034Z,55.12
2023-05-21T20:21:23.036Z,55.43
2023-05-21T20:23:27.766Z,56.05
2023-05-21T20:25:32.502Z,56.34
2023-05-21T20:27:37.300Z,56.58
2023-05-21T20:29:42.043Z,56.92
2023-05-21T20:31:46.860Z,57.02
2023-05-21T20:33:51.621Z,57.32
2023-05-21T20:35:56.392Z,57.38
2023-05-21T20:38:01.096Z,57.58
2023-05-21T20:40:07.013Z,57.80
2023-05-21T20:42:11.718Z,58.06
2023-05-21T20:44:17.409Z,58.11
2023-05-21T20:46:22.144Z,58.38
2023-05-21T20:48:27.066Z,58.60
2023-05-21T20:50:31.762Z,58.79
2023-05-21T20:52:36.417Z,58.89
2023-05-21T20:54:41.108Z,59.02
2023-05-21T20:56:45.825Z,59.26
2023-05-21T20:58:53.516Z,59.49
2023-05-21T21:00:58.523Z,59.79
2023-05-21T21:03:03.256Z,59.85
2023-05-21T21:05:09.019Z,60.06
2023-05-21T21:07:13.664Z,60.12
2023-05-21T21:09:18.410Z,60.32
2023-05-21T21:11:23.425Z,60.44
2023-05-21T21:13:28.153Z,60.64
2023-05-21T21:15:32.844Z,60.96
2023-05-21T21:17:37.586Z,60.92
2023-05-21T21:19:42.243Z,60.98
2023-05-21T21:21:46.982Z,61.18
2023-05-21T21:23:51.662Z,61.60
2023-05-21T21:25:56.283Z,61.80
2023-05-21T21:28:01.016Z,61.83
2023-05-21T21:30:08.461Z,61.96
2023-05-21T21:32:13.184Z,61.88
2023-05-21T21:34:17.917Z,62.46
2023-05-21T21:36:22.773Z,62.40
2023-05-21T21:38:27.602Z,62.46
2023-05-21T21:40:32.364Z,62.52
2023-05-21T21:42:37.097Z,62.57
2023-05-21T21:44:41.837Z,62.79
2023-05-21T21:46:46.740Z,63.00
2023-05-21T21:48:51.480Z,62.97
2023-05-21T21:50:56.216Z,63.17
2023-05-21T21:53:00.905Z,63.26
2023-05-21T21:55:06.480Z,63.23
2023-05-21T21:57:11.124Z,63.25
2023-05-21T21:59:16.053Z,63.74
2023-05-21T22:01:20.776Z,63.99
2023-05-21T22:03:25.518Z,64.12
2023-05-21T22:05:30.286Z,64.23
2023-05-21T22:07:35.159Z,64.33
2023-05-21T22:09:39.966Z,64.32
2023-05-21T22:11:44.657Z,64.32
2023-05-21T22:13:49.306Z,64.64
2023-05-21T22:15:53.951Z,64.99
2023-05-21T22:17:59.093Z,65.18
2023-05-21T22:20:04.053Z,65.33
2023-05-21T22:22:08.767Z,65.55
2023-05-21T22:24:30.466Z,65.76
2023-05-21T22:26:36.476Z,65.91
2023-05-21T22:28:41.140Z,66.08
2023-05-21T22:30:45.939Z,66.24
2023-05-21T22:32:50.699Z,66.37
2023-05-21T22:34:55.377Z,66.58
2023-05-21T22:37:00.034Z,66.66
2023-05-21T22:39:04.884Z,66.99
2023-05-21T22:41:09.862Z,67.48
2023-05-21T22:43:14.615Z,68.03
2023-05-21T22:45:19.502Z,68.39
2023-05-21T22:47:24.192Z,68.84
2023-05-21T22:49:29.043Z,69.29
2023-05-21T22:51:33.729Z,69.59
2023-05-21T22:53:38.381Z,69.68
2023-05-21T22:55:43.039Z,70.01
2023-05-21T22:57:47.894Z,70.32
2023-05-21T22:59:52.672Z,70.44
2023-05-21T23:01:57.675Z,70.81
2023-05-21T23:04:02.365Z,70.90
2023-05-21T23:06:07.286Z,71.02
2023-05-21T23:08:11.934Z,71.11
2023-05-21T23:10:16.860Z,70.97
2023-05-21T23:12:21.551Z,71.09
2023-05-21T23:14:26.194Z,71.45
2023-05-21T23:16:31.038Z,71.77
2023-05-21T23:18:36.489Z,71.92
2023-05-21T23:20:41.951Z,71.91
2023-05-21T23:22:46.942Z,72.05
2023-05-21T23:24:51.658Z,72.22
2023-05-21T23:26:56.434Z,72.27
2023-05-21T23:29:01.447Z,72.43
2023-05-21T23:31:06.462Z,72.54
2023-05-21T23:33:12.607Z,72.63
2023-05-21T23:35:17.401Z,72.76
2023-05-21T23:37:22.595Z,72.78
2023-05-21T23:39:27.910Z,72.83
2023-05-21T23:41:32.597Z,72.86
2023-05-21T23:43:37.257Z,73.01
2023-05-21T23:45:42.019Z,73.07
2023-05-21T23:47:46.852Z,72.94
2023-05-21T23:49:51.603Z,72.91
2023-05-21T23:51:56.552Z,73.02
2023-05-21T23:54:01.166Z,73.12
2023-05-21T23:56:06.585Z,73.20
2023-05-21T23:58:11.303Z,73.40
